createdAt,value
2022-08-26T00:00:08.863Z,62.28
2022-08-26T00:03:00.909Z,61.99
2022-08-26T00:05:29.214Z,62.09
2022-08-26T00:07:57.610Z,62.04
2022-08-26T00:10:25.984Z,62.15
2022-08-26T00:12:55.168Z,62.00
2022-08-26T00:15:24.934Z,62.02
2022-08-26T00:17:53.935Z,62.28
2022-08-26T00:20:25.943Z,62.31
2022-08-26T00:22:55.259Z,62.64
2022-08-26T00:25:24.098Z,62.79
2022-08-26T00:27:52.850Z,63.04
2022-08-26T00:30:26.580Z,63.06
2022-08-26T00:32:55.903Z,63.24
2022-08-26T00:35:24.990Z,63.22
2022-08-26T00:37:57.306Z,63.40
2022-08-26T00:40:33.182Z,63.04
2022-08-26T00:43:02.572Z,63.33
2022-08-26T00:45:48.772Z,63.15
2022-08-26T00:48:21.441Z,63.04
2022-08-26T00:51:01.883Z,62.79
2022-08-26T00:53:34.444Z,62.87
2022-08-26T00:56:31.806Z,62.93
2022-08-26T00:59:06.294Z,62.94
2022-08-26T01:01:34.834Z,62.86
2022-08-26T01:04:03.426Z,62.79
2022-08-26T01:06:32.016Z,63.00
2022-08-26T01:09:00.499Z,63.00
2022-08-26T01:11:28.596Z,62.95
2022-08-26T01:14:00.534Z,63.15
2022-08-26T01:16:30.902Z,63.00
2022-08-26T01:19:06.856Z,63.18
2022-08-26T01:21:43.922Z,63.14
2022-08-26T01:24:13.978Z,63.51
2022-08-26T01:26:44.863Z,63.40
2022-08-26T01:29:19.221Z,63.49
2022-08-26T01:31:55.491Z,63.94
2022-08-26T01:34:25.426Z,64.02
2022-08-26T01:37:07.117Z,64.10
2022-08-26T01:39:36.881Z,63.92
2022-08-26T01:42:10.407Z,64.08
2022-08-26T01:44:46.488Z,63.99
2022-08-26T01:47:17.962Z,64.14
2022-08-26T01:49:50.810Z,64.28
2022-08-26T01:52:24.016Z,64.52
2022-08-26T01:54:57.705Z,64.72
2022-08-26T01:57:26.530Z,64.82
2022-08-26T01:59:58.562Z,65.00
2022-08-26T02:02:27.303Z,65.25
2022-08-26T02:05:02.192Z,65.18
2022-08-26T02:07:31.950Z,65.46
2022-08-26T02:10:01.310Z,65.50
2022-08-26T02:12:31.143Z,65.68
2022-08-26T02:15:02.262Z,65.61
2022-08-26T02:17:40.009Z,65.73
2022-08-26T02:20:13.352Z,65.99
2022-08-26T02:22:45.195Z,66.13
2022-08-26T02:25:29.510Z,66.25
2022-08-26T02:27:57.848Z,66.39
2022-08-26T02:30:29.621Z,66.29
2022-08-26T02:33:04.005Z,66.40
2022-08-26T02:35:34.044Z,66.45
2022-08-26T02:38:11.090Z,66.57
2022-08-26T02:40:41.435Z,66.54
2022-08-26T02:43:12.452Z,66.32
2022-08-26T02:45:41.408Z,66.35
2022-08-26T02:48:15.479Z,66.44
2022-08-26T02:50:44.539Z,66.41
2022-08-26T02:53:13.554Z,66.24
2022-08-26T02:55:42.375Z,66.37
2022-08-26T02:58:11.503Z,66.27
2022-08-26T03:00:53.245Z,66.10
2022-08-26T03:03:23.601Z,65.90
2022-08-26T03:05:53.270Z,65.80
2022-08-26T03:08:22.436Z,65.72
2022-08-26T03:10:51.039Z,65.71
2022-08-26T03:13:19.256Z,65.69
2022-08-26T03:15:47.676Z,65.59
2022-08-26T03:18:16.449Z,65.82
2022-08-26T03:20:45.620Z,65.87
2022-08-26T03:23:13.717Z,66.08
2022-08-26T03:25:42.409Z,66.31
2022-08-26T03:28:10.785Z,66.32
2022-08-26T03:30:44.873Z,66.72
2022-08-26T03:33:14.709Z,66.84
2022-08-26T03:35:45.237Z,67.01
2022-08-26T03:38:13.729Z,67.10
2022-08-26T03:40:43.782Z,67.29
2022-08-26T03:43:12.753Z,67.49
2022-08-26T03:45:41.672Z,67.44
2022-08-26T03:48:11.590Z,67.50
2022-08-26T03:50:40.711Z,67.56
2022-08-26T03:53:13.233Z,67.36
2022-08-26T03:55:42.417Z,67.49
2022-08-26T03:58:11.576Z,67.45
2022-08-26T04:00:39.984Z,67.53
2022-08-26T04:03:09.950Z,67.53
2022-08-26T04:05:38.697Z,67.63
2022-08-26T04:08:06.964Z,67.45
2022-08-26T04:10:38.520Z,67.38
2022-08-26T04:13:06.627Z,67.46
2022-08-26T04:15:35.049Z,67.41
2022-08-26T04:18:03.287Z,67.50
2022-08-26T04:20:32.223Z,67.41
2022-08-26T04:23:00.286Z,67.58
2022-08-26T04:25:28.359Z,67.57
2022-08-26T04:27:56.908Z,67.58
2022-08-26T04:30:25.736Z,67.63
2022-08-26T04:32:54.623Z,67.93
2022-08-26T04:35:25.662Z,67.71
2022-08-26T04:37:54.514Z,67.61
2022-08-26T04:40:23.938Z,67.55
2022-08-26T04:42:54.591Z,67.41
2022-08-26T04:45:23.481Z,67.41
2022-08-26T04:47:59.256Z,67.60
2022-08-26T04:50:27.444Z,67.40
2022-08-26T04:52:55.763Z,67.13
2022-08-26T04:55:38.184Z,66.92
2022-08-26T04:58:10.436Z,66.51
2022-08-26T05:00:38.945Z,66.50
2022-08-26T05:03:07.672Z,66.34
2022-08-26T05:05:41.305Z,65.84
2022-08-26T05:08:11.420Z,65.65
2022-08-26T05:10:46.216Z,65.84
2022-08-26T05:13:18.207Z,65.69
2022-08-26T05:15:49.440Z,65.48
2022-08-26T05:18:21.339Z,65.23
2022-08-26T05:20:54.881Z,65.21
2022-08-26T05:23:24.667Z,64.99
2022-08-26T05:25:59.234Z,65.08
2022-08-26T05:28:29.987Z,65.22
2022-08-26T05:30:58.268Z,64.41
2022-08-26T05:33:26.400Z,64.14
2022-08-26T05:35:55.164Z,64.70
2022-08-26T05:38:23.441Z,64.19
2022-08-26T05:40:53.213Z,64.31
2022-08-26T05:43:21.395Z,64.16
2022-08-26T05:45:50.630Z,63.82
2022-08-26T05:48:22.846Z,63.44
2022-08-26T05:50:53.426Z,63.21
2022-08-26T05:53:23.915Z,62.88
2022-08-26T05:55:56.994Z,62.60
2022-08-26T05:58:27.358Z,61.84
2022-08-26T06:01:01.743Z,62.10
2022-08-26T06:03:34.233Z,61.14
2022-08-26T06:06:33.077Z,61.09
2022-08-26T06:09:05.067Z,60.50
2022-08-26T06:11:34.012Z,60.08
2022-08-26T06:14:06.594Z,60.18
2022-08-26T06:16:38.722Z,60.52
2022-08-26T06:19:11.633Z,59.89
2022-08-26T06:21:42.217Z,60.14
2022-08-26T06:24:32.607Z,59.93
2022-08-26T06:27:04.806Z,59.74
2022-08-26T06:29:36.192Z,59.94
2022-08-26T06:32:06.868Z,59.91
2022-08-26T06:34:34.902Z,59.93
2022-08-26T06:37:03.802Z,59.47
2022-08-26T06:39:32.125Z,59.50
2022-08-26T06:42:02.636Z,59.71
2022-08-26T06:44:34.754Z,59.79
2022-08-26T06:47:02.813Z,59.39
2022-08-26T06:49:30.917Z,59.49
2022-08-26T06:51:59.062Z,59.10
2022-08-26T06:54:31.628Z,59.15
2022-08-26T06:57:01.207Z,59.12
2022-08-26T06:59:31.273Z,58.52
2022-08-26T07:02:00.034Z,58.57
2022-08-26T07:04:29.058Z,58.47
2022-08-26T07:06:57.055Z,59.10
2022-08-26T07:09:28.361Z,58.97
2022-08-26T07:11:56.857Z,58.05
2022-08-26T07:14:26.442Z,57.39
2022-08-26T07:16:55.110Z,56.88
2022-08-26T07:19:30.545Z,56.90
2022-08-26T07:22:03.629Z,56.39
2022-08-26T07:24:37.386Z,56.05
2022-08-26T07:27:08.554Z,56.38
2022-08-26T07:29:39.542Z,56.11
2022-08-26T07:32:09.988Z,56.02
2022-08-26T07:34:38.993Z,56.31
2022-08-26T07:37:08.743Z,56.33
2022-08-26T07:39:37.370Z,55.79
2022-08-26T07:42:07.382Z,55.30
2022-08-26T07:44:37.812Z,54.77
2022-08-26T07:47:10.251Z,55.23
2022-08-26T07:49:55.884Z,55.07
2022-08-26T07:52:27.316Z,54.42
2022-08-26T07:55:01.136Z,54.58
2022-08-26T07:57:30.491Z,53.93
2022-08-26T07:59:59.281Z,53.06
2022-08-26T08:02:29.367Z,52.45
2022-08-26T08:04:59.883Z,52.24
2022-08-26T08:07:45.062Z,51.09
2022-08-26T08:10:20.984Z,50.88
2022-08-26T08:12:50.726Z,49.64
2022-08-26T08:15:22.806Z,47.64
2022-08-26T08:17:51.678Z,48.43
2022-08-26T08:20:21.378Z,48.93
2022-08-26T08:22:52.949Z,47.26
2022-08-26T08:25:23.070Z,47.46
2022-08-26T08:27:51.034Z,47.56
2022-08-26T08:30:23.128Z,48.17
2022-08-26T08:32:52.709Z,48.25
2022-08-26T08:35:23.012Z,48.61
2022-08-26T08:37:54.629Z,48.84
2022-08-26T08:40:26.217Z,48.81
2022-08-26T08:43:04.094Z,48.34
2022-08-26T08:45:38.448Z,46.84
2022-08-26T08:48:28.130Z,47.10
2022-08-26T08:51:14.122Z,47.01
2022-08-26T08:53:46.027Z,46.99
2022-08-26T08:56:26.745Z,46.45
2022-08-26T08:59:20.538Z,45.27
2022-08-26T09:01:55.664Z,44.53
2022-08-26T09:04:23.747Z,42.70
2022-08-26T09:09:46.174Z,44.24
2022-08-26T09:12:21.515Z,43.78
2022-08-26T09:15:20.649Z,44.13
2022-08-26T09:18:31.831Z,43.42
2022-08-26T09:21:09.494Z,39.62
2022-08-26T09:23:41.795Z,39.69
2022-08-26T09:26:40.025Z,39.98
2022-08-26T09:29:42.765Z,38.88
2022-08-26T09:32:24.153Z,40.15
2022-08-26T09:35:06.259Z,38.83
2022-08-26T09:40:20.328Z,35.83
2022-08-26T09:43:05.580Z,35.14
2022-08-26T09:45:36.297Z,35.59
2022-08-26T09:48:05.016Z,35.06
2022-08-26T09:50:37.298Z,33.14
2022-08-26T09:53:09.711Z,32.25
2022-08-26T09:55:47.706Z,32.62
2022-08-26T09:58:37.976Z,32.89
2022-08-26T10:01:09.144Z,32.74
2022-08-26T10:03:39.818Z,32.96
2022-08-26T10:06:24.383Z,31.35
2022-08-26T10:08:56.326Z,31.31
2022-08-26T10:11:43.054Z,29.08
2022-08-26T10:14:48.856Z,28.34
2022-08-26T10:17:36.511Z,29.25
2022-08-26T10:20:27.529Z,29.40
2022-08-26T10:23:23.402Z,28.90
2022-08-26T10:26:20.936Z,30.74
2022-08-26T10:29:01.566Z,29.47
2022-08-26T10:31:40.980Z,29.93
2022-08-26T10:34:12.587Z,28.33
2022-08-26T10:37:13.662Z,27.80
2022-08-26T10:39:51.867Z,27.93
2022-08-26T10:42:39.027Z,27.44
2022-08-26T10:45:19.866Z,28.80
2022-08-26T10:48:00.306Z,29.55
2022-08-26T10:50:36.238Z,28.28
2022-08-26T10:53:51.427Z,28.36
2022-08-26T10:56:41.524Z,28.81
2022-08-26T10:59:22.616Z,28.70
2022-08-26T11:02:07.215Z,28.41
2022-08-26T11:04:56.865Z,27.99
2022-08-26T11:07:39.369Z,28.84
2022-08-26T11:10:09.172Z,27.96
2022-08-26T11:12:37.264Z,26.79
2022-08-26T11:15:07.000Z,25.98
2022-08-26T11:17:47.096Z,25.20
2022-08-26T11:20:30.323Z,27.24
2022-08-26T11:23:13.348Z,26.49
2022-08-26T11:25:57.057Z,26.25
2022-08-26T11:28:37.240Z,26.34
2022-08-26T11:31:10.204Z,26.61
2022-08-26T11:33:44.258Z,25.81
2022-08-26T11:36:37.766Z,26.04
2022-08-26T11:39:19.395Z,26.29
2022-08-26T11:41:52.609Z,26.65
2022-08-26T11:44:25.271Z,25.24
2022-08-26T11:47:00.956Z,25.69
2022-08-26T11:49:33.298Z,25.48
2022-08-26T11:52:12.140Z,24.48
2022-08-26T11:54:40.184Z,24.23
2022-08-26T11:57:12.594Z,24.32
2022-08-26T11:59:42.451Z,24.04
2022-08-26T12:02:17.958Z,24.95
2022-08-26T12:04:49.784Z,24.69
2022-08-26T12:07:24.394Z,24.59
2022-08-26T12:10:02.256Z,25.84
2022-08-26T12:12:35.171Z,24.08
2022-08-26T12:15:15.287Z,23.86
2022-08-26T12:17:45.127Z,23.49
2022-08-26T12:20:48.992Z,22.81
2022-08-26T12:23:28.110Z,24.05
2022-08-26T12:26:10.525Z,24.08
2022-08-26T12:28:47.999Z,23.30
2022-08-26T12:31:30.073Z,25.45
2022-08-26T12:34:01.256Z,24.52
2022-08-26T12:36:54.808Z,24.37
2022-08-26T12:39:35.684Z,25.24
2022-08-26T12:42:08.014Z,24.42
2022-08-26T12:44:58.596Z,23.75
2022-08-26T12:47:39.048Z,25.21
2022-08-26T12:50:22.719Z,23.78
2022-08-26T12:53:11.643Z,22.96
2022-08-26T12:55:47.672Z,23.89
2022-08-26T12:58:15.563Z,25.34
2022-08-26T13:00:49.431Z,24.15
2022-08-26T13:03:38.726Z,21.72
2022-08-26T13:06:15.966Z,22.24
2022-08-26T13:09:12.238Z,21.89
2022-08-26T13:11:40.233Z,21.05
2022-08-26T13:14:23.633Z,20.95
2022-08-26T13:16:53.553Z,20.60
2022-08-26T13:19:24.165Z,20.86
2022-08-26T13:22:00.687Z,20.30
2022-08-26T13:24:41.992Z,20.89
2022-08-26T13:27:15.129Z,20.97
2022-08-26T13:29:43.446Z,21.12
2022-08-26T13:32:11.703Z,20.93
2022-08-26T13:34:40.387Z,20.87
2022-08-26T13:37:08.320Z,21.41
2022-08-26T13:39:36.945Z,21.19
2022-08-26T13:42:05.235Z,22.39
2022-08-26T13:44:33.677Z,25.92
2022-08-26T13:47:01.749Z,25.68
2022-08-26T13:49:29.782Z,22.05
2022-08-26T13:51:57.756Z,20.64
2022-08-26T13:54:26.580Z,20.64
2022-08-26T13:56:54.572Z,22.43
2022-08-26T13:59:22.620Z,22.40
2022-08-26T14:01:50.796Z,20.89
2022-08-26T14:04:23.331Z,20.79
2022-08-26T14:06:55.772Z,20.85
2022-08-26T14:09:23.817Z,20.82
2022-08-26T14:11:54.431Z,21.43
2022-08-26T14:14:23.138Z,21.68
2022-08-26T14:16:58.909Z,21.49
2022-08-26T14:19:30.359Z,20.72
2022-08-26T14:22:01.136Z,20.55
2022-08-26T14:24:29.962Z,22.18
2022-08-26T14:26:58.862Z,20.78
2022-08-26T14:29:27.027Z,20.66
2022-08-26T14:31:56.632Z,20.64
2022-08-26T14:34:25.530Z,20.00
2022-08-26T14:36:53.620Z,20.18
2022-08-26T14:39:22.414Z,20.22
2022-08-26T14:41:54.987Z,20.50
2022-08-26T14:44:31.505Z,21.90
2022-08-26T14:47:01.837Z,22.12
2022-08-26T14:49:31.780Z,21.59
2022-08-26T14:52:00.460Z,21.13
2022-08-26T14:54:29.761Z,22.36
2022-08-26T14:57:01.932Z,22.97
2022-08-26T14:59:32.972Z,22.88
2022-08-26T15:02:01.428Z,24.20
2022-08-26T15:04:29.680Z,24.29
2022-08-26T15:06:59.845Z,24.48
2022-08-26T15:09:30.498Z,23.85
2022-08-26T15:11:59.266Z,24.27
2022-08-26T15:14:32.706Z,24.84
2022-08-26T15:17:01.352Z,24.43
2022-08-26T15:19:29.731Z,24.07
2022-08-26T15:21:57.906Z,24.91
2022-08-26T15:24:28.876Z,24.82
2022-08-26T15:26:57.733Z,23.35
2022-08-26T15:29:26.013Z,24.15
2022-08-26T15:31:55.312Z,24.08
2022-08-26T15:34:26.764Z,24.38
2022-08-26T15:36:55.445Z,23.87
2022-08-26T15:39:24.155Z,23.92
2022-08-26T15:41:52.412Z,25.15
2022-08-26T15:44:20.711Z,27.51
2022-08-26T15:46:50.266Z,28.27
2022-08-26T15:49:18.846Z,27.99
2022-08-26T15:51:51.540Z,27.92
2022-08-26T15:54:22.186Z,27.67
2022-08-26T15:56:52.435Z,27.60
2022-08-26T15:59:22.572Z,27.58
2022-08-26T16:01:52.478Z,28.37
2022-08-26T16:04:21.232Z,29.20
2022-08-26T16:06:51.667Z,30.24
2022-08-26T16:09:27.104Z,30.59
2022-08-26T16:11:59.066Z,28.77
2022-08-26T16:14:27.348Z,30.21
2022-08-26T16:16:56.753Z,30.80
2022-08-26T16:19:25.126Z,31.11
2022-08-26T16:21:53.509Z,30.19
2022-08-26T16:24:27.167Z,30.23
2022-08-26T16:26:58.455Z,29.52
2022-08-26T16:29:27.196Z,30.32
2022-08-26T16:31:55.517Z,30.23
2022-08-26T16:34:24.516Z,31.11
2022-08-26T16:36:53.509Z,32.52
2022-08-26T16:39:21.831Z,32.85
2022-08-26T16:41:50.469Z,32.51
2022-08-26T16:44:19.357Z,32.87
2022-08-26T16:46:47.686Z,33.13
2022-08-26T16:49:15.833Z,32.61
2022-08-26T16:51:43.861Z,32.65
2022-08-26T16:54:12.058Z,33.86
2022-08-26T16:56:40.443Z,34.53
2022-08-26T16:59:11.707Z,34.87
2022-08-26T17:01:40.126Z,35.83
2022-08-26T17:04:08.856Z,35.56
2022-08-26T17:06:37.159Z,35.22
2022-08-26T17:09:05.923Z,35.60
2022-08-26T17:11:34.644Z,35.98
2022-08-26T17:14:03.044Z,37.07
2022-08-26T17:16:31.817Z,37.03
2022-08-26T17:19:01.071Z,37.52
2022-08-26T17:21:29.344Z,38.38
2022-08-26T17:23:57.626Z,38.57
2022-08-26T17:26:27.432Z,39.19
2022-08-26T17:28:56.026Z,40.16
2022-08-26T17:31:24.242Z,40.47
2022-08-26T17:33:54.262Z,41.17
2022-08-26T17:36:27.993Z,41.54
2022-08-26T17:38:58.135Z,41.29
2022-08-26T17:41:26.862Z,41.49
2022-08-26T17:43:54.958Z,41.52
2022-08-26T17:46:24.047Z,41.68
2022-08-26T17:48:52.574Z,41.61
2022-08-26T17:51:21.027Z,41.82
2022-08-26T17:53:50.539Z,42.08
2022-08-26T17:56:24.186Z,42.53
2022-08-26T17:59:03.463Z,42.74
2022-08-26T18:01:33.070Z,42.91
2022-08-26T18:04:01.777Z,43.10
2022-08-26T18:06:30.933Z,43.25
2022-08-26T18:09:00.908Z,43.41
2022-08-26T18:11:30.337Z,43.85
2022-08-26T18:13:59.987Z,44.05
2022-08-26T18:16:32.085Z,44.67
2022-08-26T18:19:00.671Z,44.74
2022-08-26T18:21:28.940Z,44.88
2022-08-26T18:23:57.377Z,45.06
2022-08-26T18:26:32.767Z,45.19
2022-08-26T18:29:02.064Z,45.63
2022-08-26T18:31:31.269Z,46.03
2022-08-26T18:34:01.381Z,46.27
2022-08-26T18:36:34.063Z,46.54
2022-08-26T18:39:04.497Z,46.60
2022-08-26T18:41:38.620Z,46.88
2022-08-26T18:44:09.474Z,47.33
2022-08-26T18:46:39.971Z,47.63
2022-08-26T18:49:08.761Z,47.35
2022-08-26T18:51:38.166Z,47.36
2022-08-26T18:54:07.954Z,47.87
2022-08-26T18:56:37.583Z,47.76
2022-08-26T18:59:07.776Z,48.00
2022-08-26T19:01:37.433Z,48.55
2022-08-26T19:04:07.244Z,48.94
2022-08-26T19:06:36.423Z,48.93
2022-08-26T19:09:08.964Z,48.72
2022-08-26T19:11:42.903Z,49.65
2022-08-26T19:14:14.447Z,50.26
2022-08-26T19:16:45.664Z,49.76
2022-08-26T19:19:14.142Z,49.84
2022-08-26T19:21:42.513Z,50.11
2022-08-26T19:24:15.791Z,49.89
2022-08-26T19:26:46.572Z,50.08
2022-08-26T19:29:19.087Z,50.21
2022-08-26T19:31:47.945Z,50.89
2022-08-26T19:34:20.694Z,50.82
2022-08-26T19:36:49.800Z,51.09
2022-08-26T19:39:18.029Z,51.25
2022-08-26T19:41:46.120Z,51.75
2022-08-26T19:44:38.328Z,51.54
2022-08-26T19:47:09.814Z,51.85
2022-08-26T19:49:38.460Z,52.20
2022-08-26T19:52:06.599Z,52.43
2022-08-26T19:54:35.455Z,52.81
2022-08-26T19:57:04.007Z,53.04
2022-08-26T19:59:33.311Z,53.13
2022-08-26T20:02:02.037Z,52.72
2022-08-26T20:04:32.114Z,52.99
2022-08-26T20:07:01.828Z,52.96
2022-08-26T20:09:32.736Z,53.02
2022-08-26T20:12:02.517Z,53.42
2022-08-26T20:14:31.164Z,53.42
2022-08-26T20:16:59.490Z,53.79
2022-08-26T20:19:46.353Z,53.87
2022-08-26T20:22:14.838Z,54.45
2022-08-26T20:24:43.024Z,54.15
2022-08-26T20:27:11.442Z,54.13
2022-08-26T20:29:40.995Z,54.44
2022-08-26T20:32:09.933Z,54.33
2022-08-26T20:34:39.922Z,54.60
2022-08-26T20:37:08.687Z,55.10
2022-08-26T20:39:36.869Z,55.19
2022-08-26T20:42:06.918Z,55.71
2022-08-26T20:44:54.865Z,55.84
2022-08-26T20:47:23.507Z,55.79
2022-08-26T20:49:52.337Z,55.76
2022-08-26T20:52:21.182Z,55.74
2022-08-26T20:54:49.363Z,56.02
2022-08-26T20:57:17.642Z,55.98
2022-08-26T20:59:45.809Z,56.03
2022-08-26T21:02:14.089Z,56.28
2022-08-26T21:04:42.317Z,56.25
2022-08-26T21:07:10.534Z,56.54
2022-08-26T21:09:38.711Z,56.37
2022-08-26T21:12:07.298Z,56.42
2022-08-26T21:14:35.365Z,56.65
2022-08-26T21:17:04.460Z,56.52
2022-08-26T21:19:32.395Z,56.78
2022-08-26T21:22:00.506Z,57.22
2022-08-26T21:24:28.575Z,57.52
2022-08-26T21:26:57.059Z,57.57
2022-08-26T21:29:25.544Z,57.90
2022-08-26T21:31:53.564Z,57.82
2022-08-26T21:34:21.986Z,57.86
2022-08-26T21:36:50.366Z,57.80
2022-08-26T21:39:18.717Z,57.80
2022-08-26T21:41:47.379Z,57.57
2022-08-26T21:44:17.345Z,58.12
2022-08-26T21:46:46.560Z,58.33
2022-08-26T21:49:16.171Z,58.51
2022-08-26T21:51:47.436Z,58.50
2022-08-26T21:54:16.294Z,58.63
2022-08-26T21:56:47.111Z,59.05
2022-08-26T21:59:18.182Z,59.26
2022-08-26T22:01:47.201Z,59.23
2022-08-26T22:04:16.160Z,59.65
2022-08-26T22:06:50.575Z,59.52
2022-08-26T22:09:23.868Z,59.51
2022-08-26T22:11:53.682Z,59.57
2022-08-26T22:14:30.660Z,60.16
2022-08-26T22:16:59.978Z,60.16
2022-08-26T22:19:29.999Z,60.00
2022-08-26T22:21:59.080Z,60.08
2022-08-26T22:24:27.970Z,60.10
2022-08-26T22:26:56.991Z,60.51
2022-08-26T22:29:25.855Z,60.56
2022-08-26T22:31:54.045Z,60.26
2022-08-26T22:34:23.426Z,60.40
2022-08-26T22:36:51.707Z,60.65
2022-08-26T22:39:23.331Z,60.83
2022-08-26T22:41:53.381Z,60.95
2022-08-26T22:44:22.483Z,61.12
2022-08-26T22:46:54.440Z,61.01
2022-08-26T22:49:23.603Z,61.12
2022-08-26T22:51:51.734Z,61.29
2022-08-26T22:54:20.298Z,61.26
2022-08-26T22:56:48.733Z,61.31
2022-08-26T22:59:17.149Z,61.48
2022-08-26T23:01:46.933Z,61.16
2022-08-26T23:04:15.244Z,61.26
2022-08-26T23:06:47.598Z,61.62
2022-08-26T23:09:18.531Z,61.71
2022-08-26T23:11:48.703Z,61.86
2022-08-26T23:14:18.502Z,62.11
2022-08-26T23:16:47.474Z,62.09
2022-08-26T23:19:18.659Z,62.08
2022-08-26T23:21:47.764Z,62.15
2022-08-26T23:24:17.381Z,62.22
2022-08-26T23:26:46.014Z,62.45
2022-08-26T23:29:16.025Z,62.43
2022-08-26T23:31:45.242Z,62.75
2022-08-26T23:34:32.590Z,62.51
2022-08-26T23:37:02.467Z,62.61
2022-08-26T23:39:35.372Z,62.50
2022-08-26T23:42:04.467Z,62.48
2022-08-26T23:44:32.748Z,62.48
2022-08-26T23:47:01.819Z,62.47
2022-08-26T23:49:30.197Z,62.66
2022-08-26T23:52:17.320Z,62.79
2022-08-26T23:54:48.807Z,62.90
2022-08-26T23:57:19.854Z,62.79
2022-08-26T23:59:48.668Z,62.97
